Time;durP1;ratioP1;P1;durP2;ratioP2;P2;SDS_P1;SDS_P2;PMS_P1;PMS_P2;Temp;Humidity;BMP_temperature;BMP_pressure;BME280_temperature;BME280_humidity;BME280_pressure;Samples;Min_cycle;Max_cycle;Signal;HPM_P1;HPM_P2
2021/08/08 00:00:50;;;;;;;3.37;1.60;;;;;;;;;;4996597;28;20062;-52
2021/08/08 00:03:18;;;;;;;3.63;1.40;;;;;;;;;;4986031;28;20042;-48
2021/08/08 00:05:44;;;;;;;2.00;1.20;;;;;;;;;;4976923;28;20047;-49
2021/08/08 00:08:11;;;;;;;2.63;1.50;;;;;;;;;;4982001;28;20043;-50
2021/08/08 00:10:37;;;;;;;4.15;1.45;;;;;;;;;;4977559;28;20042;-54
2021/08/08 00:13:04;;;;;;;10.40;1.80;;;;;;;;;;4980372;28;20047;-53
2021/08/08 00:15:34;;;;;;;8.20;1.77;;;;;;;;;;4974594;28;20047;-53
2021/08/08 00:18:02;;;;;;;5.82;1.67;;;;;;;;;;4981478;28;20042;-53
2021/08/08 00:20:29;;;;;;;4.70;1.52;;;;;;;;;;4978398;28;20076;-53
2021/08/08 00:22:56;;;;;;;4.28;1.60;;;;;;;;;;4978956;28;20038;-54
2021/08/08 00:25:22;;;;;;;5.93;1.50;;;;;;;;;;4981072;28;20050;-52
2021/08/08 00:27:49;;;;;;;4.65;1.67;;;;;;;;;;4983034;28;20038;-51
2021/08/08 00:30:15;;;;;;;6.88;2.03;;;;;;;;;;4980190;28;20058;-54
2021/08/08 00:32:43;;;;;;;4.85;1.88;;;;;;;;;;4982686;28;20035;-53
2021/08/08 00:35:10;;;;;;;7.80;1.80;;;;;;;;;;4976109;28;20043;-53
2021/08/08 00:37:37;;;;;;;6.70;2.03;;;;;;;;;;4978033;28;20049;-54
2021/08/08 00:40:05;;;;;;;5.63;2.28;;;;;;;;;;4981972;28;20058;-56
2021/08/08 00:42:31;;;;;;;6.78;2.00;;;;;;;;;;4979425;28;20069;-53
2021/08/08 00:44:58;;;;;;;7.18;2.10;;;;;;;;;;4998228;28;20125;-54
2021/08/08 00:47:25;;;;;;;4.57;1.92;;;;;;;;;;4977849;28;20046;-57
2021/08/08 00:49:54;;;;;;;5.10;2.10;;;;;;;;;;4980412;28;20055;-55
2021/08/08 00:52:20;;;;;;;5.32;1.90;;;;;;;;;;4974518;28;20050;-53
2021/08/08 00:54:47;;;;;;;5.05;1.98;;;;;;;;;;4980301;28;20035;-53
2021/08/08 00:57:13;;;;;;;6.65;2.03;;;;;;;;;;4971902;28;20076;-54
2021/08/08 00:59:39;;;;;;;7.05;2.17;;;;;;;;;;4978636;28;20047;-55
2021/08/08 01:02:06;;;;;;;6.03;2.05;;;;;;;;;;4978939;28;20357;-54
2021/08/08 01:04:34;;;;;;;4.10;2.15;;;;;;;;;;4983437;28;20031;-56
2021/08/08 01:07:04;;;;;;;6.18;2.60;;;;;;;;;;4973320;28;20050;-55
2021/08/08 01:09:32;;;;;;;10.73;2.78;;;;;;;;;;4976688;28;20054;-53
2021/08/08 01:12:00;;;;;;;11.43;2.57;;;;;;;;;;4978667;28;20039;-54
2021/08/08 01:14:29;;;;;;;8.35;2.80;;;;;;;;;;4979809;28;20043;-54
2021/08/08 01:16:56;;;;;;;8.38;2.53;;;;;;;;;;4976398;28;20744;-55
2021/08/08 01:19:24;;;;;;;7.43;2.58;;;;;;;;;;4981179;28;20049;-52
2021/08/08 01:21:52;;;;;;;5.18;2.20;;;;;;;;;;4978762;28;20043;-54
2021/08/08 01:24:21;;;;;;;9.65;2.65;;;;;;;;;;4980176;28;20055;-54
2021/08/08 01:26:47;;;;;;;7.93;2.70;;;;;;;;;;4979576;28;20039;-49
2021/08/08 01:29:14;;;;;;;8.77;2.70;;;;;;;;;;4978552;28;20174;-54
2021/08/08 01:31:48;;;;;;;6.57;2.67;;;;;;;;;;4981663;28;20043;-52
2021/08/08 01:34:15;;;;;;;8.38;2.60;;;;;;;;;;4975916;28;20062;-51
2021/08/08 01:36:41;;;;;;;8.00;3.03;;;;;;;;;;4966737;28;20091;-53
2021/08/08 01:39:12;;;;;;;6.97;2.72;;;;;;;;;;4979609;28;20103;-50
2021/08/08 01:41:43;;;;;;;7.53;2.85;;;;;;;;;;4983270;28;20057;-53
2021/08/08 01:44:10;;;;;;;11.43;3.30;;;;;;;;;;4992499;28;20055;-52
2021/08/08 01:46:37;;;;;;;10.48;3.33;;;;;;;;;;4983116;28;20027;-51
2021/08/08 01:49:03;;;;;;;10.38;2.90;;;;;;;;;;4974854;28;20046;-50
2021/08/08 01:51:30;;;;;;;14.75;3.83;;;;;;;;;;4980120;28;20047;-51
2021/08/08 01:53:57;;;;;;;14.10;3.53;;;;;;;;;;4977815;28;20117;-54
2021/08/08 01:56:23;;;;;;;20.77;3.58;;;;;;;;;;4983183;28;20049;-54
2021/08/08 01:58:51;;;;;;;13.88;3.35;;;;;;;;;;4967693;28;20038;-54
2021/08/08 02:01:18;;;;;;;10.20;3.67;;;;;;;;;;4993306;28;20105;-54
2021/08/08 02:03:44;;;;;;;11.35;4.20;;;;;;;;;;4963440;28;20075;-55
2021/08/08 02:06:11;;;;;;;12.75;3.58;;;;;;;;;;4982559;28;20035;-54
2021/08/08 02:08:38;;;;;;;10.95;3.45;;;;;;;;;;4981413;28;20050;-56
2021/08/08 02:11:05;;;;;;;15.68;3.72;;;;;;;;;;4982117;28;20050;-51
2021/08/08 02:13:31;;;;;;;15.48;3.88;;;;;;;;;;4982191;28;20061;-54
2021/08/08 02:15:59;;;;;;;16.27;3.83;;;;;;;;;;4995346;28;20053;-54
2021/08/08 02:18:26;;;;;;;18.07;4.30;;;;;;;;;;5002814;28;20128;-54
2021/08/08 02:20:52;;;;;;;15.82;4.30;;;;;;;;;;4983433;28;20280;-51
2021/08/08 02:23:19;;;;;;;19.35;4.55;;;;;;;;;;4984709;28;20059;-53
2021/08/08 02:25:50;;;;;;;14.45;3.67;;;;;;;;;;4979251;28;20085;-53
2021/08/08 02:28:18;;;;;;;12.93;3.53;;;;;;;;;;4983286;28;20038;-50
2021/08/08 02:30:45;;;;;;;13.07;3.88;;;;;;;;;;4987172;28;20049;-54
2021/08/08 02:33:12;;;;;;;13.63;4.20;;;;;;;;;;4999266;28;20047;-53
2021/08/08 02:35:39;;;;;;;18.30;3.80;;;;;;;;;;4988710;28;20045;-54
2021/08/08 02:38:05;;;;;;;11.90;3.80;;;;;;;;;;5002679;28;20057;-55
2021/08/08 02:40:32;;;;;;;13.10;3.85;;;;;;;;;;4993624;28;20039;-52
2021/08/08 02:43:00;;;;;;;21.02;4.15;;;;;;;;;;4982412;28;20166;-53
2021/08/08 02:45:26;;;;;;;13.07;3.40;;;;;;;;;;4979542;28;20069;-54
2021/08/08 02:47:52;;;;;;;13.77;3.80;;;;;;;;;;4983578;28;20057;-49
2021/08/08 02:50:20;;;;;;;18.13;3.53;;;;;;;;;;4980144;28;20047;-51
2021/08/08 02:52:46;;;;;;;12.87;3.80;;;;;;;;;;4963369;28;20035;-54
2021/08/08 02:55:13;;;;;;;17.38;4.03;;;;;;;;;;4979697;28;20091;-51
2021/08/08 02:57:39;;;;;;;20.40;3.58;;;;;;;;;;4992777;28;20057;-53
2021/08/08 03:00:06;;;;;;;12.45;3.75;;;;;;;;;;4983344;28;20170;-54
2021/08/08 03:02:53;;;;;;;17.50;3.25;;;;;;;;;;5067767;23;20082;-50
2021/08/08 03:05:21;;;;;;;19.48;4.15;;;;;;;;;;5002931;28;20056;-53
2021/08/08 03:07:49;;;;;;;16.88;3.58;;;;;;;;;;4980351;28;20042;-54
2021/08/08 03:10:15;;;;;;;12.45;3.40;;;;;;;;;;5007442;28;20033;-54
2021/08/08 03:12:43;;;;;;;14.32;3.67;;;;;;;;;;4994975;28;20069;-51
2021/08/08 03:15:10;;;;;;;13.13;3.10;;;;;;;;;;4984959;28;20065;-53
2021/08/08 03:17:37;;;;;;;16.65;4.18;;;;;;;;;;5001820;28;20090;-52
2021/08/08 03:20:03;;;;;;;12.73;3.03;;;;;;;;;;4994538;28;20058;-52
2021/08/08 03:22:31;;;;;;;18.15;4.22;;;;;;;;;;5003843;28;20049;-55
2021/08/08 03:24:58;;;;;;;16.60;3.38;;;;;;;;;;5009737;28;20136;-53
2021/08/08 03:27:24;;;;;;;12.52;3.67;;;;;;;;;;5004626;28;20042;-47
2021/08/08 03:29:50;;;;;;;14.20;3.58;;;;;;;;;;4993372;28;20060;-53
2021/08/08 03:32:17;;;;;;;14.07;3.67;;;;;;;;;;4984036;28;20022;-52
2021/08/08 03:34:43;;;;;;;17.50;3.50;;;;;;;;;;4997682;28;20066;-53
2021/08/08 03:37:10;;;;;;;19.60;3.72;;;;;;;;;;5004733;28;20061;-48
2021/08/08 03:39:38;;;;;;;15.45;4.28;;;;;;;;;;4993198;28;20038;-53
2021/08/08 03:42:05;;;;;;;12.98;3.47;;;;;;;;;;4991170;28;20036;-53
2021/08/08 03:44:33;;;;;;;11.63;2.97;;;;;;;;;;4988052;28;20069;-51
2021/08/08 03:46:59;;;;;;;14.75;3.47;;;;;;;;;;4986051;28;20061;-51
2021/08/08 03:49:26;;;;;;;14.75;3.95;;;;;;;;;;4997712;28;20038;-53
2021/08/08 03:51:52;;;;;;;17.42;2.95;;;;;;;;;;4985392;28;20147;-54
2021/08/08 03:54:21;;;;;;;15.88;3.25;;;;;;;;;;4999381;28;20070;-52
2021/08/08 03:56:47;;;;;;;;;;;;;;;;;;4982808;28;20046;-53
2021/08/08 03:59:15;;;;;;;13.15;3.20;;;;;;;;;;4979180;28;19926;-53
2021/08/08 04:01:41;;;;;;;17.92;3.10;;;;;;;;;;4979153;28;20082;-53
2021/08/08 04:04:08;;;;;;;11.75;3.28;;;;;;;;;;4979627;28;20042;-55
2021/08/08 04:06:34;;;;;;;14.50;3.10;;;;;;;;;;4990248;28;20042;-54
2021/08/08 04:09:01;;;;;;;14.45;3.88;;;;;;;;;;4986420;28;20047;-55
2021/08/08 04:11:27;;;;;;;17.90;3.03;;;;;;;;;;4993827;28;20059;-54
2021/08/08 04:13:54;;;;;;;14.43;2.72;;;;;;;;;;5024461;28;20159;-52
2021/08/08 04:16:22;;;;;;;15.00;3.38;;;;;;;;;;5006906;28;20042;-54
2021/08/08 04:18:48;;;;;;;11.90;3.00;;;;;;;;;;5009174;28;20049;-52
2021/08/08 04:21:15;;;;;;;15.18;2.95;;;;;;;;;;4989882;28;20034;-51
2021/08/08 04:23:42;;;;;;;10.85;2.60;;;;;;;;;;5006017;28;20046;-54
2021/08/08 04:26:08;;;;;;;16.13;2.83;;;;;;;;;;5016751;28;20057;-50
2021/08/08 04:28:39;;;;;;;20.60;3.25;;;;;;;;;;5025765;28;20034;-50
2021/08/08 04:31:06;;;;;;;16.20;3.60;;;;;;;;;;5020387;28;20048;-51
2021/08/08 04:33:36;;;;;;;17.50;3.17;;;;;;;;;;5031811;28;20042;-48
2021/08/08 04:36:03;;;;;;;18.33;2.90;;;;;;;;;;4997468;28;20057;-54
2021/08/08 04:38:29;;;;;;;11.43;2.78;;;;;;;;;;5005945;28;20030;-54
2021/08/08 04:40:56;;;;;;;13.30;2.88;;;;;;;;;;5010184;28;20042;-53
2021/08/08 04:43:22;;;;;;;16.70;3.10;;;;;;;;;;5003913;28;20053;-52
2021/08/08 04:45:49;;;;;;;15.30;3.20;;;;;;;;;;5001921;28;20046;-52
2021/08/08 04:48:15;;;;;;;13.25;2.55;;;;;;;;;;4989781;28;20030;-53
2021/08/08 04:50:43;;;;;;;11.77;3.10;;;;;;;;;;5001899;28;20085;-53
2021/08/08 04:53:13;;;;;;;18.05;3.28;;;;;;;;;;4995281;28;20046;-54
2021/08/08 04:55:39;;;;;;;16.15;2.72;;;;;;;;;;5002044;28;20113;-54
2021/08/08 04:58:06;;;;;;;16.02;3.22;;;;;;;;;;5021425;28;20049;-53
2021/08/08 05:00:32;;;;;;;12.25;2.42;;;;;;;;;;5004253;28;20050;-53
2021/08/08 05:03:00;;;;;;;16.52;2.80;;;;;;;;;;5013306;28;20038;-53
2021/08/08 05:05:26;;;;;;;7.65;2.40;;;;;;;;;;5002032;28;20039;-53
2021/08/08 05:07:54;;;;;;;13.75;2.40;;;;;;;;;;4997384;28;20046;-52
2021/08/08 05:10:24;;;;;;;21.00;2.78;;;;;;;;;;5002817;28;20035;-54
2021/08/08 05:12:51;;;;;;;14.27;2.78;;;;;;;;;;5007874;28;20107;-52
2021/08/08 05:15:17;;;;;;;27.20;3.17;;;;;;;;;;5025089;28;20048;-52
2021/08/08 05:17:44;;;;;;;12.60;2.97;;;;;;;;;;5000648;28;20078;-53
2021/08/08 05:20:11;;;;;;;18.17;3.50;;;;;;;;;;4984067;28;20039;-50
2021/08/08 05:22:38;;;;;;;17.42;3.22;;;;;;;;;;4998039;28;20045;-53
2021/08/08 05:25:06;;;;;;;15.98;2.67;;;;;;;;;;5041949;28;20038;-54
2021/08/08 05:27:34;;;;;;;;;;;;;;;;;;5009026;28;20042;-51
2021/08/08 05:30:00;;;;;;;11.35;2.67;;;;;;;;;;4990162;28;19925;-50
2021/08/08 05:32:27;;;;;;;10.57;2.38;;;;;;;;;;4985851;28;20042;-50
2021/08/08 05:34:54;;;;;;;23.08;2.92;;;;;;;;;;5020725;28;20053;-53
2021/08/08 05:37:21;;;;;;;12.23;2.35;;;;;;;;;;5018527;28;20042;-54
2021/08/08 05:39:48;;;;;;;9.05;2.22;;;;;;;;;;5040305;28;20044;-51
2021/08/08 05:42:17;;;;;;;14.30;2.50;;;;;;;;;;5041058;28;20050;-53
2021/08/08 05:44:46;;;;;;;10.55;2.53;;;;;;;;;;4983752;28;20042;-53
2021/08/08 05:47:13;;;;;;;14.07;2.50;;;;;;;;;;5001493;28;20035;-51
2021/08/08 05:49:39;;;;;;;15.05;2.75;;;;;;;;;;5011166;28;20038;-52
2021/08/08 05:52:07;;;;;;;7.45;2.28;;;;;;;;;;5000674;28;20481;-53
2021/08/08 05:54:40;;;;;;;9.57;2.08;;;;;;;;;;4995119;28;20046;-51
2021/08/08 05:57:06;;;;;;;14.82;2.58;;;;;;;;;;4984210;28;20035;-51
2021/08/08 05:59:34;;;;;;;15.98;2.10;;;;;;;;;;5008224;28;20060;-54
2021/08/08 06:02:01;;;;;;;12.85;2.75;;;;;;;;;;4989257;28;20100;-52
2021/08/08 06:04:27;;;;;;;15.50;2.70;;;;;;;;;;4990828;28;20092;-51
2021/08/08 06:06:54;;;;;;;16.08;2.63;;;;;;;;;;5011668;28;20034;-47
2021/08/08 06:09:20;;;;;;;13.77;2.53;;;;;;;;;;5002957;28;20045;-52
2021/08/08 06:11:47;;;;;;;18.35;2.75;;;;;;;;;;5004913;28;20046;-54
2021/08/08 06:14:21;;;;;;;15.25;2.55;;;;;;;;;;4995314;28;20042;-50
2021/08/08 06:16:48;;;;;;;13.02;2.63;;;;;;;;;;5040424;28;20052;-52
2021/08/08 06:19:15;;;;;;;18.53;2.40;;;;;;;;;;5028567;28;20031;-53
2021/08/08 06:21:41;;;;;;;14.20;2.22;;;;;;;;;;4999934;28;20047;-51
2021/08/08 06:24:08;;;;;;;13.27;2.50;;;;;;;;;;4998591;28;20049;-54
2021/08/08 06:26:36;;;;;;;20.40;3.10;;;;;;;;;;4983161;28;20039;-53
2021/08/08 06:29:05;;;;;;;15.48;4.40;;;;;;;;;;4984138;28;20545;-52
2021/08/08 06:31:32;;;;;;;20.55;3.13;;;;;;;;;;4997495;28;20045;-52
2021/08/08 06:33:59;;;;;;;17.35;3.05;;;;;;;;;;4981817;28;20043;-53
2021/08/08 06:36:27;;;;;;;17.75;2.80;;;;;;;;;;4981379;28;20107;-51
2021/08/08 06:38:53;;;;;;;14.52;2.30;;;;;;;;;;4979751;28;20039;-54
2021/08/08 06:41:21;;;;;;;16.85;2.53;;;;;;;;;;4976066;28;20045;-52
2021/08/08 06:43:50;;;;;;;13.65;2.63;;;;;;;;;;4988746;28;20094;-53
2021/08/08 06:46:16;;;;;;;9.23;2.40;;;;;;;;;;4993648;28;20047;-52
2021/08/08 06:48:43;;;;;;;15.93;2.83;;;;;;;;;;5011227;28;20039;-53
2021/08/08 06:51:11;;;;;;;14.15;2.60;;;;;;;;;;4985260;28;20038;-54
2021/08/08 06:53:44;;;;;;;11.60;2.40;;;;;;;;;;4988780;28;20035;-53
2021/08/08 06:56:11;;;;;;;17.85;2.38;;;;;;;;;;4995101;28;20041;-50
2021/08/08 06:58:37;;;;;;;9.43;2.13;;;;;;;;;;4999797;28;20046;-52
2021/08/08 07:01:04;;;;;;;13.02;2.70;;;;;;;;;;4996385;28;20165;-53
2021/08/08 07:03:30;;;;;;;16.58;2.67;;;;;;;;;;5008533;28;20062;-52
2021/08/08 07:05:57;;;;;;;16.63;3.00;;;;;;;;;;4979019;28;20174;-52
2021/08/08 07:08:26;;;;;;;21.67;2.40;;;;;;;;;;4984932;28;20117;-53
2021/08/08 07:10:52;;;;;;;20.52;2.50;;;;;;;;;;4978642;28;20043;-52
2021/08/08 07:13:22;;;;;;;10.50;2.42;;;;;;;;;;4979647;28;20035;-54
2021/08/08 07:15:48;;;;;;;13.75;2.75;;;;;;;;;;4982884;28;20035;-53
2021/08/08 07:18:15;;;;;;;15.38;2.40;;;;;;;;;;4978509;28;20043;-53
2021/08/08 07:20:41;;;;;;;12.77;2.47;;;;;;;;;;4983505;28;20027;-53
2021/08/08 07:23:09;;;;;;;15.35;2.80;;;;;;;;;;4977505;28;20047;-53
2021/08/08 07:25:37;;;;;;;13.93;2.30;;;;;;;;;;4984160;28;20031;-50
2021/08/08 07:28:03;;;;;;;16.37;2.63;;;;;;;;;;4978822;28;20057;-53
2021/08/08 07:30:30;;;;;;;14.75;3.10;;;;;;;;;;4981967;28;20296;-49
2021/08/08 07:32:57;;;;;;;14.25;2.47;;;;;;;;;;5002651;28;20070;-52
2021/08/08 07:35:26;;;;;;;12.13;2.25;;;;;;;;;;5008398;28;20042;-54
2021/08/08 07:37:54;;;;;;;10.48;2.20;;;;;;;;;;4998126;28;20071;-50
2021/08/08 07:40:21;;;;;;;9.93;2.42;;;;;;;;;;4988131;28;20042;-52
2021/08/08 07:42:49;;;;;;;15.30;3.15;;;;;;;;;;4979269;28;20042;-51
2021/08/08 07:45:16;;;;;;;15.57;2.72;;;;;;;;;;4983183;28;20042;-52
2021/08/08 07:47:42;;;;;;;17.08;2.63;;;;;;;;;;4995617;28;20136;-53
2021/08/08 07:50:09;;;;;;;14.32;2.70;;;;;;;;;;4982929;28;20042;-53
2021/08/08 07:52:36;;;;;;;20.58;2.50;;;;;;;;;;4980726;28;20041;-55
2021/08/08 07:55:02;;;;;;;10.40;2.20;;;;;;;;;;4982706;28;20042;-53
2021/08/08 07:57:29;;;;;;;10.23;2.65;;;;;;;;;;5000164;28;20038;-53
2021/08/08 07:59:57;;;;;;;7.60;2.17;;;;;;;;;;4977685;28;20043;-54
2021/08/08 08:02:23;;;;;;;9.73;1.85;;;;;;;;;;5005903;28;20054;-52
2021/08/08 08:04:49;;;;;;;13.48;3.00;;;;;;;;;;4977586;28;20035;-54
2021/08/08 08:07:16;;;;;;;12.75;2.40;;;;;;;;;;4984058;28;20042;-53
2021/08/08 08:09:43;;;;;;;12.95;2.63;;;;;;;;;;4977542;28;20027;-53
2021/08/08 08:12:09;;;;;;;11.23;2.40;;;;;;;;;;4996044;28;20190;-50
2021/08/08 08:14:36;;;;;;;15.27;2.40;;;;;;;;;;4980207;28;20050;-53
2021/08/08 08:17:04;;;;;;;18.35;3.10;;;;;;;;;;5000703;28;20061;-53
2021/08/08 08:19:31;;;;;;;9.13;2.20;;;;;;;;;;4996470;28;20042;-52
2021/08/08 08:21:57;;;;;;;17.35;3.03;;;;;;;;;;4986254;28;20046;-53
2021/08/08 08:24:24;;;;;;;14.85;3.00;;;;;;;;;;4981649;28;20058;-52
2021/08/08 08:26:50;;;;;;;8.75;2.30;;;;;;;;;;4986686;28;20121;-53
2021/08/08 08:29:20;;;;;;;10.68;2.40;;;;;;;;;;4981899;28;20050;-50
2021/08/08 08:31:46;;;;;;;10.93;1.88;;;;;;;;;;4984312;28;20062;-50
2021/08/08 08:34:14;;;;;;;8.48;2.22;;;;;;;;;;4983510;28;20082;-48
2021/08/08 08:36:41;;;;;;;14.40;2.20;;;;;;;;;;4991646;28;20035;-51
2021/08/08 08:39:07;;;;;;;12.07;2.90;;;;;;;;;;5002412;28;20043;-50
2021/08/08 08:41:36;;;;;;;10.05;2.15;;;;;;;;;;4980404;28;20050;-50
2021/08/08 08:44:03;;;;;;;9.50;2.50;;;;;;;;;;4999127;28;20046;-53
2021/08/08 08:46:30;;;;;;;14.23;2.63;;;;;;;;;;4983914;28;20042;-55
2021/08/08 08:48:57;;;;;;;12.60;2.10;;;;;;;;;;4984706;28;20128;-52
2021/08/08 08:51:28;;;;;;;16.30;2.33;;;;;;;;;;4978767;28;20042;-52
2021/08/08 08:53:55;;;;;;;10.95;2.22;;;;;;;;;;5005792;28;20047;-53
2021/08/08 08:56:22;;;;;;;14.50;2.78;;;;;;;;;;4981754;28;20034;-54
2021/08/08 08:58:49;;;;;;;5.63;1.83;;;;;;;;;;5003794;28;20035;-52
2021/08/08 09:01:15;;;;;;;14.75;2.15;;;;;;;;;;4982847;28;20038;-52
2021/08/08 09:03:44;;;;;;;9.77;2.15;;;;;;;;;;4988557;28;20069;-51
2021/08/08 09:06:11;;;;;;;9.38;2.08;;;;;;;;;;4983906;28;20035;-52
2021/08/08 09:08:39;;;;;;;13.85;2.67;;;;;;;;;;4970818;28;20054;-54
2021/08/08 09:11:07;;;;;;;9.23;2.15;;;;;;;;;;4984005;28;20121;-55
2021/08/08 09:13:36;;;;;;;13.05;2.70;;;;;;;;;;4970023;28;20043;-53
2021/08/08 09:16:13;;;;;;;12.80;2.47;;;;;;;;;;4981962;28;20055;-52
2021/08/08 09:18:47;;;;;;;13.63;3.03;;;;;;;;;;4985459;28;20094;-51
2021/08/08 09:21:14;;;;;;;8.75;2.47;;;;;;;;;;4980415;28;20038;-53
2021/08/08 09:23:42;;;;;;;9.85;2.15;;;;;;;;;;4982447;28;20108;-53
2021/08/08 09:26:09;;;;;;;14.52;2.45;;;;;;;;;;4981884;28;20038;-48
2021/08/08 09:28:35;;;;;;;11.95;2.30;;;;;;;;;;4983738;28;20042;-54
2021/08/08 09:31:04;;;;;;;10.52;1.95;;;;;;;;;;4998312;28;20065;-52
2021/08/08 09:33:40;;;;;;;19.67;2.40;;;;;;;;;;4967985;28;20050;-55
2021/08/08 09:36:07;;;;;;;13.55;2.17;;;;;;;;;;4966043;28;20042;-53
2021/08/08 09:38:43;;;;;;;9.98;2.05;;;;;;;;;;4975136;28;20129;-55
2021/08/08 09:41:11;;;;;;;10.73;2.05;;;;;;;;;;4992719;28;20143;-54
2021/08/08 09:43:38;;;;;;;10.02;2.08;;;;;;;;;;4977596;28;20125;-53
2021/08/08 09:46:04;;;;;;;11.52;2.40;;;;;;;;;;4981338;28;20039;-51
2021/08/08 09:48:38;;;;;;;10.48;2.10;;;;;;;;;;4969577;28;20031;-54
2021/08/08 09:51:05;;;;;;;10.25;2.17;;;;;;;;;;5002550;28;20034;-54
2021/08/08 09:53:31;;;;;;;13.93;2.40;;;;;;;;;;4966425;28;20050;-53
2021/08/08 09:55:58;;;;;;;14.02;2.67;;;;;;;;;;4980854;28;20031;-54
2021/08/08 09:58:27;;;;;;;19.30;2.30;;;;;;;;;;4965531;28;20039;-52
2021/08/08 10:00:58;;;;;;;8.40;2.10;;;;;;;;;;4983405;28;20047;-51
2021/08/08 10:03:24;;;;;;;6.53;1.80;;;;;;;;;;4981808;28;20027;-51
2021/08/08 10:05:54;;;;;;;13.70;2.10;;;;;;;;;;4985357;28;20045;-51
2021/08/08 10:08:21;;;;;;;11.02;1.85;;;;;;;;;;4987020;28;20067;-53
2021/08/08 10:10:48;;;;;;;9.90;2.15;;;;;;;;;;4987565;28;20090;-52
2021/08/08 10:13:24;;;;;;;9.05;2.13;;;;;;;;;;4985569;28;20050;-53
2021/08/08 10:15:53;;;;;;;12.65;3.35;;;;;;;;;;4968387;28;20042;-49
2021/08/08 10:18:23;;;;;;;11.80;2.45;;;;;;;;;;4957119;28;20039;-51
2021/08/08 10:20:49;;;;;;;10.45;2.38;;;;;;;;;;4963456;28;20051;-54
2021/08/08 10:23:18;;;;;;;8.38;2.05;;;;;;;;;;4967263;28;20069;-51
2021/08/08 10:25:46;;;;;;;7.93;1.98;;;;;;;;;;4979565;28;20050;-52
2021/08/08 10:28:12;;;;;;;8.35;1.80;;;;;;;;;;4981963;28;20039;-53
2021/08/08 10:30:39;;;;;;;12.25;2.30;;;;;;;;;;4984228;28;20043;-53
2021/08/08 10:33:09;;;;;;;8.30;1.85;;;;;;;;;;4971921;28;20255;-53
2021/08/08 10:35:39;;;;;;;22.67;2.10;;;;;;;;;;4977321;28;20047;-53
2021/08/08 10:38:06;;;;;;;11.32;2.30;;;;;;;;;;4980787;28;20038;-51
2021/08/08 10:40:33;;;;;;;7.45;1.80;;;;;;;;;;4978390;28;20050;-52
2021/08/08 10:43:01;;;;;;;8.88;2.33;;;;;;;;;;4983218;28;20039;-51
2021/08/08 10:45:29;;;;;;;11.35;2.30;;;;;;;;;;4980972;28;20038;-49
2021/08/08 10:47:56;;;;;;;15.07;2.63;;;;;;;;;;4989580;28;20038;-53
2021/08/08 10:50:35;;;;;;;10.88;2.00;;;;;;;;;;4977909;28;20039;-51
2021/08/08 10:53:02;;;;;;;16.13;2.42;;;;;;;;;;4964880;28;20047;-56
2021/08/08 10:55:30;;;;;;;8.02;1.92;;;;;;;;;;4959082;28;20051;-55
2021/08/08 10:57:57;;;;;;;13.27;2.22;;;;;;;;;;4965675;28;20039;-54
2021/08/08 11:00:31;;;;;;;8.70;2.22;;;;;;;;;;4984742;28;20054;-50
2021/08/08 11:02:57;;;;;;;9.80;2.25;;;;;;;;;;4990868;28;20137;-54
2021/08/08 11:05:25;;;;;;;8.38;1.98;;;;;;;;;;4962436;28;20093;-51
2021/08/08 11:07:55;;;;;;;8.85;2.65;;;;;;;;;;4967611;28;20211;-52
2021/08/08 11:10:25;;;;;;;12.13;3.92;;;;;;;;;;4983852;28;20046;-54
2021/08/08 11:12:56;;;;;;;14.32;2.58;;;;;;;;;;4975142;28;20070;-53
2021/08/08 11:15:32;;;;;;;7.85;1.80;;;;;;;;;;4992422;28;20054;-54
2021/08/08 11:18:00;;;;;;;8.23;2.10;;;;;;;;;;4977985;28;20122;-55
2021/08/08 11:20:28;;;;;;;10.75;2.17;;;;;;;;;;4965787;28;20066;-52
2021/08/08 11:22:55;;;;;;;7.63;1.83;;;;;;;;;;4955347;28;20106;-54
2021/08/08 11:25:23;;;;;;;7.63;2.03;;;;;;;;;;4962986;28;20055;-56
2021/08/08 11:27:53;;;;;;;11.95;2.00;;;;;;;;;;4968694;28;20050;-54
2021/08/08 11:30:20;;;;;;;7.35;1.70;;;;;;;;;;4963080;28;20042;-50
2021/08/08 11:32:55;;;;;;;14.43;2.40;;;;;;;;;;4976409;28;20040;-51
2021/08/08 11:35:26;;;;;;;8.32;1.88;;;;;;;;;;4975534;28;20047;-50
2021/08/08 11:37:54;;;;;;;7.05;1.63;;;;;;;;;;4974631;28;20035;-51
2021/08/08 11:40:22;;;;;;;7.97;2.10;;;;;;;;;;4979990;28;20117;-54
2021/08/08 11:42:54;;;;;;;7.55;1.95;;;;;;;;;;4959703;28;20149;-51
2021/08/08 11:45:31;;;;;;;7.45;1.80;;;;;;;;;;4965026;28;20031;-53
2021/08/08 11:47:57;;;;;;;9.45;1.77;;;;;;;;;;4961177;28;20039;-53
2021/08/08 11:50:28;;;;;;;6.43;1.90;;;;;;;;;;4964926;28;20045;-51
2021/08/08 11:52:59;;;;;;;9.25;1.60;;;;;;;;;;4959270;28;20111;-55
2021/08/08 11:55:25;;;;;;;9.30;2.08;;;;;;;;;;4980444;28;20047;-53
2021/08/08 11:58:03;;;;;;;7.22;1.60;;;;;;;;;;4979083;28;20062;-55
2021/08/08 12:00:29;;;;;;;12.48;1.83;;;;;;;;;;4967671;28;20039;-52
2021/08/08 12:02:56;;;;;;;9.23;1.58;;;;;;;;;;4984334;28;20050;-53
2021/08/08 12:05:22;;;;;;;10.25;1.80;;;;;;;;;;4987722;28;20126;-55
2021/08/08 12:07:49;;;;;;;4.88;1.48;;;;;;;;;;4987190;28;20042;-54
2021/08/08 12:10:26;;;;;;;9.05;1.90;;;;;;;;;;5004041;28;20088;-53
2021/08/08 12:12:55;;;;;;;16.70;1.98;;;;;;;;;;5014237;28;20058;-55
2021/08/08 12:15:31;;;;;;;15.77;2.95;;;;;;;;;;5002124;28;20054;-50
2021/08/08 12:17:58;;;;;;;16.90;4.80;;;;;;;;;;4998028;28;20034;-55
2021/08/08 12:20:31;;;;;;;8.75;1.48;;;;;;;;;;4999582;28;20045;-52
2021/08/08 12:23:03;;;;;;;13.52;2.08;;;;;;;;;;5026739;28;20046;-51
2021/08/08 12:25:30;;;;;;;10.73;1.88;;;;;;;;;;5002913;28;20042;-54
2021/08/08 12:27:57;;;;;;;5.75;1.63;;;;;;;;;;5005510;28;20035;-54
2021/08/08 12:30:27;;;;;;;4.93;1.33;;;;;;;;;;5001835;28;20066;-54
2021/08/08 12:33:03;;;;;;;8.00;1.20;;;;;;;;;;5002933;28;20042;-53
2021/08/08 12:35:34;;;;;;;11.52;1.45;;;;;;;;;;4985967;28;20170;-55
2021/08/08 12:38:05;;;;;;;7.50;1.70;;;;;;;;;;5003864;28;20109;-55
2021/08/08 12:40:41;;;;;;;4.40;1.35;;;;;;;;;;5000665;28;20034;-56
2021/08/08 12:43:08;;;;;;;6.57;1.20;;;;;;;;;;5018642;28;20054;-54
2021/08/08 12:45:36;;;;;;;5.90;1.48;;;;;;;;;;4985359;28;20049;-56
2021/08/08 12:48:03;;;;;;;6.70;2.17;;;;;;;;;;5004281;28;20042;-56
2021/08/08 12:50:29;;;;;;;6.57;1.48;;;;;;;;;;5004557;28;20286;-54
2021/08/08 12:52:58;;;;;;;8.55;1.40;;;;;;;;;;4985573;28;20067;-55
2021/08/08 12:55:25;;;;;;;9.13;1.75;;;;;;;;;;4995903;28;20046;-52
2021/08/08 12:57:53;;;;;;;6.90;1.42;;;;;;;;;;4986989;28;20078;-54
2021/08/08 13:00:19;;;;;;;5.82;1.38;;;;;;;;;;4983307;28;20090;-54
2021/08/08 13:02:49;;;;;;;7.85;1.50;;;;;;;;;;4989522;28;20035;-54
2021/08/08 13:05:15;;;;;;;8.15;2.88;;;;;;;;;;5006955;28;20030;-50
2021/08/08 13:07:42;;;;;;;7.68;2.00;;;;;;;;;;4987337;28;20058;-54
2021/08/08 13:10:09;;;;;;;8.48;1.60;;;;;;;;;;4981215;28;20054;-54
2021/08/08 13:12:39;;;;;;;5.30;1.20;;;;;;;;;;4986921;28;20054;-55
2021/08/08 13:15:08;;;;;;;6.72;1.30;;;;;;;;;;5003902;28;20040;-53
2021/08/08 13:17:36;;;;;;;5.95;1.33;;;;;;;;;;5017578;28;20057;-53
2021/08/08 13:20:02;;;;;;;5.72;1.42;;;;;;;;;;4981982;28;20030;-54
2021/08/08 13:22:29;;;;;;;7.13;1.85;;;;;;;;;;5017373;28;20041;-55
2021/08/08 13:24:55;;;;;;;5.10;1.40;;;;;;;;;;5015458;28;20042;-56
2021/08/08 13:27:22;;;;;;;7.25;1.50;;;;;;;;;;4983878;28;20034;-54
2021/08/08 13:29:48;;;;;;;9.60;1.88;;;;;;;;;;4993016;28;20120;-53
2021/08/08 13:32:16;;;;;;;6.43;1.52;;;;;;;;;;5019730;28;20050;-54
2021/08/08 13:34:55;;;;;;;7.22;1.70;;;;;;;;;;5006453;28;20111;-52
2021/08/08 13:37:22;;;;;;;7.28;1.60;;;;;;;;;;5003466;28;20044;-54
2021/08/08 13:39:49;;;;;;;8.05;1.48;;;;;;;;;;5008083;28;20033;-55
2021/08/08 13:42:15;;;;;;;8.73;1.65;;;;;;;;;;5001867;28;20037;-52
2021/08/08 13:44:42;;;;;;;7.80;1.63;;;;;;;;;;5015949;28;20034;-55
2021/08/08 13:47:09;;;;;;;7.03;1.67;;;;;;;;;;4987628;28;20043;-52
2021/08/08 13:49:37;;;;;;;3.78;1.23;;;;;;;;;;5012275;28;20046;-54
2021/08/08 13:52:03;;;;;;;9.98;1.48;;;;;;;;;;5003719;28;20087;-56
2021/08/08 13:54:34;;;;;;;6.20;1.10;;;;;;;;;;5017919;28;20034;-55
2021/08/08 13:57:01;;;;;;;4.78;0.77;;;;;;;;;;5002362;28;20059;-56
2021/08/08 13:59:27;;;;;;;4.28;0.90;;;;;;;;;;5016743;28;20093;-51
2021/08/08 14:01:54;;;;;;;5.05;0.98;;;;;;;;;;5009880;28;20043;-50
2021/08/08 14:04:23;;;;;;;5.22;1.20;;;;;;;;;;4993932;28;20053;-51
2021/08/08 14:06:52;;;;;;;3.15;0.90;;;;;;;;;;4994763;28;20054;-54
2021/08/08 14:09:19;;;;;;;3.28;0.98;;;;;;;;;;5000523;28;20046;-56
2021/08/08 14:11:46;;;;;;;2.60;0.85;;;;;;;;;;5002759;28;20050;-54
2021/08/08 14:14:15;;;;;;;2.10;1.00;;;;;;;;;;4998362;28;20053;-51
2021/08/08 14:16:42;;;;;;;2.97;0.90;;;;;;;;;;5018568;28;20039;-52
2021/08/08 14:19:08;;;;;;;3.70;1.08;;;;;;;;;;4999105;28;20050;-57
2021/08/08 14:21:35;;;;;;;6.43;1.30;;;;;;;;;;5002790;28;20050;-55
2021/08/08 14:24:05;;;;;;;6.10;1.10;;;;;;;;;;5013238;28;20042;-55
2021/08/08 14:26:31;;;;;;;4.22;1.20;;;;;;;;;;5004353;28;20038;-53
2021/08/08 14:28:58;;;;;;;5.90;1.20;;;;;;;;;;5000366;28;20046;-55
2021/08/08 14:31:24;;;;;;;5.38;1.38;;;;;;;;;;5020198;28;20109;-54
2021/08/08 14:33:51;;;;;;;11.25;1.58;;;;;;;;;;5000088;28;20049;-52
2021/08/08 14:36:18;;;;;;;2.75;0.90;;;;;;;;;;5003245;28;20045;-52
2021/08/08 14:38:44;;;;;;;3.88;1.00;;;;;;;;;;4999646;28;20061;-52